sensor_id;sensor_type;location;lat;lon;timestamp;pressure;altitude;pressure_sealevel;temperature;humidity
42125;BME280;27787;44.594;11.046;2023-07-20T04:37:19;100402.28;;;25.80;70.26
42125;BME280;27787;44.594;11.046;2023-07-20T04:40:06;100400.59;;;25.77;70.36
42125;BME280;27787;44.594;11.046;2023-07-20T04:42:50;100401.88;;;25.72;70.70
42125;BME280;27787;44.594;11.046;2023-07-20T04:45:35;100398.56;;;25.67;71.16
42125;BME280;27787;44.594;11.046;2023-07-20T04:48:20;100395.84;;;25.67;70.73
42125;BME280;27787;44.594;11.046;2023-07-20T04:51:09;100395.06;;;25.65;71.42
42125;BME280;27787;44.594;11.046;2023-07-20T04:53:54;100393.97;;;25.69;72.21
42125;BME280;27787;44.594;11.046;2023-07-20T04:56:39;100395.59;;;25.71;70.93
42125;BME280;27787;44.594;11.046;2023-07-20T04:59:26;100394.63;;;25.72;70.84
42125;BME280;27787;44.594;11.046;2023-07-20T05:02:10;100394.16;;;25.80;70.69
42125;BME280;27787;44.594;11.046;2023-07-20T05:04:55;100390.88;;;25.89;70.19
42125;BME280;27787;44.594;11.046;2023-07-20T05:07:39;100388.78;;;25.94;70.44
42125;BME280;27787;44.594;11.046;2023-07-20T05:10:24;100397.16;;;25.90;70.65
42125;BME280;27787;44.594;11.046;2023-07-20T05:13:08;100397.34;;;25.86;70.98
42125;BME280;27787;44.594;11.046;2023-07-20T05:15:52;100396.16;;;25.76;71.38
42125;BME280;27787;44.594;11.046;2023-07-20T05:18:37;100396.88;;;25.64;71.75
42125;BME280;27787;44.594;11.046;2023-07-20T05:21:21;100395.91;;;25.65;71.91
42125;BME280;27787;44.594;11.046;2023-07-20T05:24:06;100403.81;;;25.70;72.11
42125;BME280;27787;44.594;11.046;2023-07-20T05:26:50;100401.22;;;25.82;72.38
42125;BME280;27787;44.594;11.046;2023-07-20T05:29:34;100400.25;;;25.98;71.00
42125;BME280;27787;44.594;11.046;2023-07-20T05:32:19;100403.47;;;26.04;70.17
42125;BME280;27787;44.594;11.046;2023-07-20T05:35:03;100395.72;;;25.98;69.91
42125;BME280;27787;44.594;11.046;2023-07-20T05:37:48;100400.84;;;26.03;70.72
42125;BME280;27787;44.594;11.046;2023-07-20T05:40:32;100404.03;;;26.09;70.05
42125;BME280;27787;44.594;11.046;2023-07-20T05:43:16;100406.63;;;25.97;70.58
42125;BME280;27787;44.594;11.046;2023-07-20T05:46:01;100415.53;;;25.99;71.24
42125;BME280;27787;44.594;11.046;2023-07-20T05:48:45;100419.59;;;25.92;72.16
42125;BME280;27787;44.594;11.046;2023-07-20T05:51:29;100419.84;;;25.73;73.32
42125;BME280;27787;44.594;11.046;2023-07-20T05:54:13;100412.25;;;25.64;74.57
42125;BME280;27787;44.594;11.046;2023-07-20T05:56:57;100409.97;;;25.72;73.89
42125;BME280;27787;44.594;11.046;2023-07-20T05:59:41;100404.03;;;25.81;73.62
42125;BME280;27787;44.594;11.046;2023-07-20T06:02:28;100413.22;;;25.93;73.33
42125;BME280;27787;44.594;11.046;2023-07-20T06:05:12;100422.69;;;26.00;72.88
42125;BME280;27787;44.594;11.046;2023-07-20T06:07:56;100426.91;;;26.04;72.29
42125;BME280;27787;44.594;11.046;2023-07-20T06:10:42;100430.44;;;26.06;73.16
42125;BME280;27787;44.594;11.046;2023-07-20T06:13:26;100435.13;;;26.16;71.99
42125;BME280;27787;44.594;11.046;2023-07-20T06:16:10;100431.88;;;26.11;72.01
42125;BME280;27787;44.594;11.046;2023-07-20T06:18:55;100438.91;;;26.00;71.71
42125;BME280;27787;44.594;11.046;2023-07-20T06:21:39;100438.69;;;25.88;72.71
42125;BME280;27787;44.594;11.046;2023-07-20T06:24:23;100447.88;;;25.86;72.98
42125;BME280;27787;44.594;11.046;2023-07-20T06:27:08;100450.00;;;25.81;72.94
42125;BME280;27787;44.594;11.046;2023-07-20T06:29:52;100454.44;;;25.82;72.16
42125;BME280;27787;44.594;11.046;2023-07-20T06:32:36;100438.69;;;25.88;72.12
42125;BME280;27787;44.594;11.046;2023-07-20T06:35:20;100440.06;;;25.96;71.63
42125;BME280;27787;44.594;11.046;2023-07-20T06:38:04;100455.81;;;26.03;70.43
42125;BME280;27787;44.594;11.046;2023-07-20T06:40:49;100452.25;;;26.17;69.76
42125;BME280;27787;44.594;11.046;2023-07-20T06:43:33;100444.75;;;26.36;68.48
42125;BME280;27787;44.594;11.046;2023-07-20T06:46:17;100441.94;;;26.52;67.71
42125;BME280;27787;44.594;11.046;2023-07-20T06:49:02;100443.88;;;26.64;66.82
42125;BME280;27787;44.594;11.046;2023-07-20T06:51:46;100451.41;;;26.73;66.46
42125;BME280;27787;44.594;11.046;2023-07-20T06:54:30;100449.84;;;26.84;65.85
42125;BME280;27787;44.594;11.046;2023-07-20T06:57:14;100446.50;;;26.93;65.17
42125;BME280;27787;44.594;11.046;2023-07-20T06:59:57;100458.63;;;27.01;65.58
42125;BME280;27787;44.594;11.046;2023-07-20T07:02:41;100467.41;;;27.05;65.56
42125;BME280;27787;44.594;11.046;2023-07-20T07:05:26;100455.59;;;27.06;65.76
42125;BME280;27787;44.594;11.046;2023-07-20T07:08:10;100459.88;;;27.10;66.01
42125;BME280;27787;44.594;11.046;2023-07-20T07:10:54;100463.13;;;27.15;65.88
42125;BME280;27787;44.594;11.046;2023-07-20T07:13:38;100460.09;;;27.20;65.91
42125;BME280;27787;44.594;11.046;2023-07-20T07:16:22;100464.28;;;27.25;66.18
42125;BME280;27787;44.594;11.046;2023-07-20T07:19:06;100468.28;;;27.32;66.31
42125;BME280;27787;44.594;11.046;2023-07-20T07:21:52;100470.59;;;27.39;66.08
42125;BME280;27787;44.594;11.046;2023-07-20T07:24:36;100465.19;;;27.39;65.35
42125;BME280;27787;44.594;11.046;2023-07-20T07:27:20;100463.44;;;27.38;65.75
42125;BME280;27787;44.594;11.046;2023-07-20T07:30:05;100463.44;;;27.38;66.17
42125;BME280;27787;44.594;11.046;2023-07-20T07:32:49;100466.81;;;27.41;65.80
42125;BME280;27787;44.594;11.046;2023-07-20T07:35:33;100463.88;;;27.44;65.94
42125;BME280;27787;44.594;11.046;2023-07-20T07:38:18;100466.31;;;27.49;65.77
42125;BME280;27787;44.594;11.046;2023-07-20T07:41:03;100471.50;;;27.52;66.06
42125;BME280;27787;44.594;11.046;2023-07-20T07:43:47;100473.25;;;27.53;66.45
42125;BME280;27787;44.594;11.046;2023-07-20T07:46:31;100467.72;;;27.54;66.24
42125;BME280;27787;44.594;11.046;2023-07-20T07:49:16;100474.66;;;27.58;66.33
42125;BME280;27787;44.594;11.046;2023-07-20T07:52:00;100479.97;;;27.60;66.74
42125;BME280;27787;44.594;11.046;2023-07-20T07:54:46;100473.69;;;27.59;66.83
42125;BME280;27787;44.594;11.046;2023-07-20T07:57:30;100471.78;;;27.61;66.73
42125;BME280;27787;44.594;11.046;2023-07-20T08:00:14;100475.44;;;27.60;66.87
42125;BME280;27787;44.594;11.046;2023-07-20T08:02:59;100468.94;;;27.63;67.35
42125;BME280;27787;44.594;11.046;2023-07-20T08:05:42;100470.50;;;27.67;67.21
42125;BME280;27787;44.594;11.046;2023-07-20T08:08:26;100468.56;;;27.69;66.83
42125;BME280;27787;44.594;11.046;2023-07-20T08:11:11;100468.31;;;27.72;66.65
42125;BME280;27787;44.594;11.046;2023-07-20T08:13:55;100463.59;;;27.76;66.62
42125;BME280;27787;44.594;11.046;2023-07-20T08:16:40;100463.38;;;27.79;66.75
42125;BME280;27787;44.594;11.046;2023-07-20T08:19:24;100472.25;;;27.81;66.60
42125;BME280;27787;44.594;11.046;2023-07-20T08:22:08;100456.97;;;27.80;66.55
42125;BME280;27787;44.594;11.046;2023-07-20T08:24:52;100468.69;;;27.80;66.67
42125;BME280;27787;44.594;11.046;2023-07-20T08:27:37;100462.94;;;27.85;66.88
42125;BME280;27787;44.594;11.046;2023-07-20T08:30:22;100468.16;;;27.88;67.09
42125;BME280;27787;44.594;11.046;2023-07-20T08:33:07;100460.66;;;27.91;67.19
42125;BME280;27787;44.594;11.046;2023-07-20T08:35:52;100461.44;;;27.94;67.38
42125;BME280;27787;44.594;11.046;2023-07-20T08:38:36;100470.09;;;27.99;67.10
42125;BME280;27787;44.594;11.046;2023-07-20T08:41:20;100472.75;;;28.00;67.70
42125;BME280;27787;44.594;11.046;2023-07-20T08:44:05;100476.31;;;28.01;67.35
42125;BME280;27787;44.594;11.046;2023-07-20T08:46:49;100459.81;;;28.04;67.46
42125;BME280;27787;44.594;11.046;2023-07-20T08:49:35;100464.38;;;28.03;67.10
42125;BME280;27787;44.594;11.046;2023-07-20T08:52:20;100469.47;;;27.95;67.44
42125;BME280;27787;44.594;11.046;2023-07-20T08:55:04;100465.44;;;27.88;68.01
42125;BME280;27787;44.594;11.046;2023-07-20T08:57:57;100459.47;;;27.83;68.61
42125;BME280;27787;44.594;11.046;2023-07-20T09:00:42;100459.47;;;27.83;68.64
42125;BME280;27787;44.594;11.046;2023-07-20T09:03:27;100453.16;;;27.82;69.07
42125;BME280;27787;44.594;11.046;2023-07-20T09:06:11;100451.03;;;27.87;68.87
42125;BME280;27787;44.594;11.046;2023-07-20T09:08:55;100453.28;;;27.94;68.71
42125;BME280;27787;44.594;11.046;2023-07-20T09:11:40;100446.47;;;28.01;68.82
42125;BME280;27787;44.594;11.046;2023-07-20T09:14:24;100458.84;;;28.05;69.64
42125;BME280;27787;44.594;11.046;2023-07-20T09:17:12;100453.41;;;28.05;69.55
42125;BME280;27787;44.594;11.046;2023-07-20T09:19:57;100448.75;;;28.07;69.53
42125;BME280;27787;44.594;11.046;2023-07-20T09:22:42;100447.75;;;28.08;69.62
42125;BME280;27787;44.594;11.046;2023-07-20T09:25:26;100447.53;;;28.11;69.97
42125;BME280;27787;44.594;11.046;2023-07-20T09:28:11;100446.47;;;28.13;69.85
42125;BME280;27787;44.594;11.046;2023-07-20T09:30:55;100445.16;;;28.19;71.08
42125;BME280;27787;44.594;11.046;2023-07-20T09:33:41;100448.41;;;28.24;71.54
42125;BME280;27787;44.594;11.046;2023-07-20T09:36:29;100449.38;;;28.23;71.24
42125;BME280;27787;44.594;11.046;2023-07-20T09:39:13;100452.53;;;28.17;71.70
42125;BME280;27787;44.594;11.046;2023-07-20T09:42:01;100450.81;;;28.16;72.23
42125;BME280;27787;44.594;11.046;2023-07-20T09:44:46;100451.03;;;28.13;72.27
42125;BME280;27787;44.594;11.046;2023-07-20T09:47:30;100457.63;;;28.21;72.41
42125;BME280;27787;44.594;11.046;2023-07-20T09:50:15;100447.97;;;28.17;72.67
42125;BME280;27787;44.594;11.046;2023-07-20T09:53:01;100453.19;;;28.20;73.61
42125;BME280;27787;44.594;11.046;2023-07-20T09:55:47;100449.28;;;28.25;73.71
42125;BME280;27787;44.594;11.046;2023-07-20T09:58:32;100452.69;;;28.28;73.92
42125;BME280;27787;44.594;11.046;2023-07-20T10:01:20;100449.88;;;28.30;74.13
42125;BME280;27787;44.594;11.046;2023-07-20T10:04:07;100435.94;;;28.34;74.72
42125;BME280;27787;44.594;11.046;2023-07-20T10:06:54;100435.94;;;28.34;74.77
42125;BME280;27787;44.594;11.046;2023-07-20T10:09:39;100441.25;;;28.36;75.00
42125;BME280;27787;44.594;11.046;2023-07-20T10:12:24;100437.03;;;28.32;74.57
42125;BME280;27787;44.594;11.046;2023-07-20T10:15:11;100434.97;;;28.35;75.25
42125;BME280;27787;44.594;11.046;2023-07-20T10:18:02;100434.66;;;28.40;75.36
42125;BME280;27787;44.594;11.046;2023-07-20T10:20:47;100429.00;;;28.43;74.49
42125;BME280;27787;44.594;11.046;2023-07-20T10:23:32;100428.53;;;28.49;74.79
42125;BME280;27787;44.594;11.046;2023-07-20T10:26:17;100432.56;;;28.56;75.51
42125;BME280;27787;44.594;11.046;2023-07-20T10:29:01;100442.53;;;28.68;75.35
42125;BME280;27787;44.594;11.046;2023-07-20T10:31:48;100434.91;;;28.73;75.10
42125;BME280;27787;44.594;11.046;2023-07-20T10:34:32;100428.59;;;28.73;75.02
42125;BME280;27787;44.594;11.046;2023-07-20T10:37:52;100428.25;;;28.77;75.65
42125;BME280;27787;44.594;11.046;2023-07-20T10:40:38;100422.50;;;28.82;75.39
42125;BME280;27787;44.594;11.046;2023-07-20T10:43:23;100421.28;;;28.86;75.46
42125;BME280;27787;44.594;11.046;2023-07-20T10:46:07;100417.47;;;28.89;75.08
42125;BME280;27787;44.594;11.046;2023-07-20T10:49:04;100423.13;;;28.98;75.55
42125;BME280;27787;44.594;11.046;2023-07-20T10:51:56;100419.94;;;29.04;74.97
42125;BME280;27787;44.594;11.046;2023-07-20T10:54:47;100416.13;;;29.07;74.79
42125;BME280;27787;44.594;11.046;2023-07-20T10:57:32;100412.81;;;29.15;72.50
42125;BME280;27787;44.594;11.046;2023-07-20T11:00:19;100407.63;;;29.12;72.80
42125;BME280;27787;44.594;11.046;2023-07-20T11:03:04;100413.91;;;29.12;73.14
42125;BME280;27787;44.594;11.046;2023-07-20T11:05:48;100408.84;;;29.07;73.78
42125;BME280;27787;44.594;11.046;2023-07-20T11:08:40;100404.38;;;29.06;74.81
42125;BME280;27787;44.594;11.046;2023-07-20T11:11:30;100404.16;;;29.10;75.47
42125;BME280;27787;44.594;11.046;2023-07-20T11:14:25;100396.50;;;29.15;75.35
42125;BME280;27787;44.594;11.046;2023-07-20T11:17:13;100399.63;;;29.21;74.50
42125;BME280;27787;44.594;11.046;2023-07-20T11:19:59;100390.25;;;29.25;73.77
42125;BME280;27787;44.594;11.046;2023-07-20T11:22:47;100390.66;;;29.32;73.24
42125;BME280;27787;44.594;11.046;2023-07-20T11:25:39;100380.53;;;29.34;72.75
42125;BME280;27787;44.594;11.046;2023-07-20T11:28:24;100380.41;;;29.35;71.94
42125;BME280;27787;44.594;11.046;2023-07-20T11:31:08;100379.41;;;29.36;72.51
42125;BME280;27787;44.594;11.046;2023-07-20T11:33:52;100383.38;;;29.32;73.54
42125;BME280;27787;44.594;11.046;2023-07-20T11:36:38;100376.31;;;29.30;73.37
42125;BME280;27787;44.594;11.046;2023-07-20T11:39:22;100376.19;;;29.31;72.71
42125;BME280;27787;44.594;11.046;2023-07-20T11:42:08;100375.84;;;29.36;73.66
42125;BME280;27787;44.594;11.046;2023-07-20T11:44:52;100369.81;;;29.44;71.39
42125;BME280;27787;44.594;11.046;2023-07-20T11:47:40;100362.97;;;29.38;71.70
42125;BME280;27787;44.594;11.046;2023-07-20T11:50:26;100362.00;;;29.39;72.08
42125;BME280;27787;44.594;11.046;2023-07-20T11:53:10;100355.38;;;29.54;72.22
42125;BME280;27787;44.594;11.046;2023-07-20T11:55:54;100360.00;;;29.65;71.98
42125;BME280;27787;44.594;11.046;2023-07-20T11:58:45;100355.94;;;29.71;69.91
42125;BME280;27787;44.594;11.046;2023-07-20T12:01:30;100357.78;;;29.70;68.19
42125;BME280;27787;44.594;11.046;2023-07-20T12:04:19;100342.69;;;29.66;68.88
42125;BME280;27787;44.594;11.046;2023-07-20T12:07:04;100339.84;;;29.67;70.03
42125;BME280;27787;44.594;11.046;2023-07-20T12:12:51;100332.56;;;29.79;70.48
42125;BME280;27787;44.594;11.046;2023-07-20T12:15:36;100339.88;;;29.90;69.88
42125;BME280;27787;44.594;11.046;2023-07-20T12:18:22;100339.38;;;29.96;68.71
42125;BME280;27787;44.594;11.046;2023-07-20T12:21:07;100330.97;;;29.99;67.89
42125;BME280;27787;44.594;11.046;2023-07-20T12:23:52;100326.53;;;29.98;67.28
42125;BME280;27787;44.594;11.046;2023-07-20T12:26:37;100324.06;;;30.06;67.95
42125;BME280;27787;44.594;11.046;2023-07-20T12:29:21;100317.84;;;30.04;65.45
42125;BME280;27787;44.594;11.046;2023-07-20T12:32:05;100314.91;;;30.07;64.57
42125;BME280;27787;44.594;11.046;2023-07-20T12:34:50;100308.72;;;30.16;65.51
42125;BME280;27787;44.594;11.046;2023-07-20T12:37:34;100312.56;;;30.25;65.97
42125;BME280;27787;44.594;11.046;2023-07-20T12:40:19;100311.16;;;30.31;67.06
42125;BME280;27787;44.594;11.046;2023-07-20T12:43:03;100310.81;;;30.35;68.04
42125;BME280;27787;44.594;11.046;2023-07-20T12:45:48;100308.44;;;30.42;66.89
42125;BME280;27787;44.594;11.046;2023-07-20T12:48:33;100311.41;;;30.50;66.28
42125;BME280;27787;44.594;11.046;2023-07-20T12:51:17;100316.06;;;30.59;65.86
42125;BME280;27787;44.594;11.046;2023-07-20T12:54:02;100300.97;;;30.66;65.37
42125;BME280;27787;44.594;11.046;2023-07-20T12:56:46;100294.88;;;30.74;64.53
42125;BME280;27787;44.594;11.046;2023-07-20T12:59:30;100300.81;;;30.79;63.99
42125;BME280;27787;44.594;11.046;2023-07-20T13:02:14;100301.41;;;30.82;63.05
42125;BME280;27787;44.594;11.046;2023-07-20T13:04:59;100287.78;;;30.82;61.95
42125;BME280;27787;44.594;11.046;2023-07-20T13:07:43;100281.09;;;30.87;61.53
42125;BME280;27787;44.594;11.046;2023-07-20T13:10:28;100284.22;;;31.03;63.47
42125;BME280;27787;44.594;11.046;2023-07-20T13:13:13;100273.91;;;31.06;62.36
42125;BME280;27787;44.594;11.046;2023-07-20T13:15:57;100274.63;;;31.08;61.08
42125;BME280;27787;44.594;11.046;2023-07-20T13:18:41;100274.25;;;31.13;62.39
42125;BME280;27787;44.594;11.046;2023-07-20T13:21:25;100269.53;;;31.15;62.37
42125;BME280;27787;44.594;11.046;2023-07-20T13:24:09;100273.47;;;31.22;61.17
42125;BME280;27787;44.594;11.046;2023-07-20T13:26:53;100273.09;;;31.27;59.23
42125;BME280;27787;44.594;11.046;2023-07-20T13:29:37;100256.78;;;31.36;58.64
42125;BME280;27787;44.594;11.046;2023-07-20T13:32:22;100261.13;;;31.39;59.08
42125;BME280;27787;44.594;11.046;2023-07-20T13:35:06;100252.81;;;31.50;58.26
42125;BME280;27787;44.594;11.046;2023-07-20T13:37:50;100252.16;;;31.58;59.44
42125;BME280;27787;44.594;11.046;2023-07-20T13:40:34;100250.06;;;31.71;59.92
42125;BME280;27787;44.594;11.046;2023-07-20T13:43:19;100253.88;;;31.80;59.24
42125;BME280;27787;44.594;11.046;2023-07-20T13:46:03;100241.53;;;31.85;57.42
42125;BME280;27787;44.594;11.046;2023-07-20T13:48:47;100235.13;;;31.96;57.10
42125;BME280;27787;44.594;11.046;2023-07-20T13:51:32;100237.31;;;32.12;56.77
42125;BME280;27787;44.594;11.046;2023-07-20T13:54:16;100239.94;;;32.23;57.26
42125;BME280;27787;44.594;11.046;2023-07-20T13:57:00;100234.38;;;32.34;57.08
42125;BME280;27787;44.594;11.046;2023-07-20T13:59:44;100226.47;;;32.41;56.09
42125;BME280;27787;44.594;11.046;2023-07-20T14:02:29;100225.91;;;32.47;56.02
42125;BME280;27787;44.594;11.046;2023-07-20T14:05:13;100225.94;;;32.56;56.00
42125;BME280;27787;44.594;11.046;2023-07-20T14:07:59;100220.88;;;32.62;55.86
42125;BME280;27787;44.594;11.046;2023-07-20T14:10:43;100218.56;;;32.67;55.48
42125;BME280;27787;44.594;11.046;2023-07-20T14:13:27;100208.97;;;32.82;54.75
42125;BME280;27787;44.594;11.046;2023-07-20T14:16:12;100216.75;;;32.87;54.74
42125;BME280;27787;44.594;11.046;2023-07-20T14:18:56;100207.22;;;33.00;53.45
42125;BME280;27787;44.594;11.046;2023-07-20T14:21:41;100204.31;;;33.11;53.87
42125;BME280;27787;44.594;11.046;2023-07-20T14:24:26;100199.97;;;33.19;53.07
42125;BME280;27787;44.594;11.046;2023-07-20T14:27:10;100204.88;;;33.25;53.79
42125;BME280;27787;44.594;11.046;2023-07-20T14:29:54;100197.78;;;33.32;52.81
42125;BME280;27787;44.594;11.046;2023-07-20T14:32:40;100195.75;;;33.43;52.01
42125;BME280;27787;44.594;11.046;2023-07-20T14:35:24;100196.75;;;33.52;52.07
42125;BME280;27787;44.594;11.046;2023-07-20T14:38:08;100200.75;;;33.58;52.56
42125;BME280;27787;44.594;11.046;2023-07-20T14:40:52;100201.75;;;33.57;52.03
42125;BME280;27787;44.594;11.046;2023-07-20T14:43:36;100201.09;;;33.72;50.51
42125;BME280;27787;44.594;11.046;2023-07-20T14:46:20;100193.78;;;33.73;50.97
42125;BME280;27787;44.594;11.046;2023-07-20T14:49:05;100191.44;;;33.88;50.77
42125;BME280;27787;44.594;11.046;2023-07-20T14:51:49;100197.84;;;33.96;50.93
42125;BME280;27787;44.594;11.046;2023-07-20T14:54:33;100195.16;;;34.14;50.46
42125;BME280;27787;44.594;11.046;2023-07-20T14:57:17;100198.66;;;34.24;50.23
42125;BME280;27787;44.594;11.046;2023-07-20T15:00:02;100193.69;;;34.38;49.88
42125;BME280;27787;44.594;11.046;2023-07-20T15:02:47;100185.34;;;34.57;49.14
42125;BME280;27787;44.594;11.046;2023-07-20T15:05:32;100188.78;;;34.59;49.15
42125;BME280;27787;44.594;11.046;2023-07-20T15:08:16;100182.38;;;34.68;48.86
42125;BME280;27787;44.594;11.046;2023-07-20T15:11:00;100187.28;;;34.82;48.19
42125;BME280;27787;44.594;11.046;2023-07-20T15:13:44;100181.56;;;34.94;46.80
42125;BME280;27787;44.594;11.046;2023-07-20T15:16:28;100178.03;;;34.83;47.65
42125;BME280;27787;44.594;11.046;2023-07-20T15:19:12;100179.38;;;34.79;48.34
42125;BME280;27787;44.594;11.046;2023-07-20T15:21:57;100175.13;;;34.85;47.93
42125;BME280;27787;44.594;11.046;2023-07-20T15:24:41;100168.25;;;34.81;48.25
42125;BME280;27787;44.594;11.046;2023-07-20T15:27:25;100171.78;;;34.91;47.89
42125;BME280;27787;44.594;11.046;2023-07-20T15:30:10;100165.97;;;34.94;48.43
42125;BME280;27787;44.594;11.046;2023-07-20T15:32:55;100154.75;;;34.87;47.38
42125;BME280;27787;44.594;11.046;2023-07-20T15:35:40;100162.13;;;34.87;47.48
42125;BME280;27787;44.594;11.046;2023-07-20T15:38:25;100148.50;;;34.95;47.24
42125;BME280;27787;44.594;11.046;2023-07-20T15:41:09;100150.75;;;35.00;47.40
42125;BME280;27787;44.594;11.046;2023-07-20T15:43:54;100148.56;;;35.03;47.71
42125;BME280;27787;44.594;11.046;2023-07-20T15:49:25;100138.66;;;35.36;47.35
42125;BME280;27787;44.594;11.046;2023-07-20T15:52:11;100140.94;;;35.49;47.25
42125;BME280;27787;44.594;11.046;2023-07-20T15:54:56;100138.59;;;35.62;46.53
42125;BME280;27787;44.594;11.046;2023-07-20T15:57:41;100137.97;;;35.76;45.60
42125;BME280;27787;44.594;11.046;2023-07-20T16:00:25;100130.66;;;35.93;45.14
42125;BME280;27787;44.594;11.046;2023-07-20T16:03:09;100129.28;;;35.89;44.62
42125;BME280;27787;44.594;11.046;2023-07-20T16:05:54;100119.69;;;36.01;44.00
42125;BME280;27787;44.594;11.046;2023-07-20T16:08:38;100122.47;;;36.10;44.61
42125;BME280;27787;44.594;11.046;2023-07-20T16:11:23;100115.31;;;36.41;44.07
42125;BME280;27787;44.594;11.046;2023-07-20T16:14:07;100122.84;;;36.96;42.83
42125;BME280;27787;44.594;11.046;2023-07-20T16:16:51;100120.16;;;37.52;42.06
42125;BME280;27787;44.594;11.046;2023-07-20T16:19:36;100116.28;;;38.00;40.12
42125;BME280;27787;44.594;11.046;2023-07-20T16:22:20;100118.13;;;38.39;38.95
42125;BME280;27787;44.594;11.046;2023-07-20T16:25:04;100108.31;;;38.82;38.50
42125;BME280;27787;44.594;11.046;2023-07-20T16:27:49;100111.91;;;39.20;37.79
42125;BME280;27787;44.594;11.046;2023-07-20T16:30:34;100099.47;;;39.01;37.85
42125;BME280;27787;44.594;11.046;2023-07-20T16:33:18;100105.53;;;38.82;38.44
42125;BME280;27787;44.594;11.046;2023-07-20T16:36:03;100107.88;;;38.47;39.22
42125;BME280;27787;44.594;11.046;2023-07-20T16:38:47;100101.56;;;38.16;40.14
42125;BME280;27787;44.594;11.046;2023-07-20T16:41:31;100101.34;;;37.94;40.25
42125;BME280;27787;44.594;11.046;2023-07-20T16:44:16;100102.31;;;37.78;40.82
42125;BME280;27787;44.594;11.046;2023-07-20T16:47:00;100089.31;;;37.56;41.09
42125;BME280;27787;44.594;11.046;2023-07-20T16:49:44;100085.97;;;37.21;41.61
42125;BME280;27787;44.594;11.046;2023-07-20T16:52:29;100093.28;;;36.90;42.42
42125;BME280;27787;44.594;11.046;2023-07-20T16:55:13;100085.72;;;36.76;42.97
42125;BME280;27787;44.594;11.046;2023-07-20T16:57:58;100091.03;;;36.69;42.85
42125;BME280;27787;44.594;11.046;2023-07-20T17:00:42;100086.94;;;36.57;42.84
42125;BME280;27787;44.594;11.046;2023-07-20T17:03:26;100080.59;;;36.40;43.11
42125;BME280;27787;44.594;11.046;2023-07-20T17:06:12;100082.44;;;36.31;43.55
42125;BME280;27787;44.594;11.046;2023-07-20T17:08:56;100080.53;;;36.16;44.72
42125;BME280;27787;44.594;11.046;2023-07-20T17:11:44;100072.13;;;36.09;44.79
42125;BME280;27787;44.594;11.046;2023-07-20T17:14:28;100082.94;;;36.02;45.17
42125;BME280;27787;44.594;11.046;2023-07-20T17:17:13;100075.00;;;35.91;46.09
42125;BME280;27787;44.594;11.046;2023-07-20T17:19:57;100080.31;;;35.85;46.09
42125;BME280;27787;44.594;11.046;2023-07-20T17:22:41;100083.16;;;35.67;46.57
42125;BME280;27787;44.594;11.046;2023-07-20T17:25:25;100074.88;;;35.51;46.92
42125;BME280;27787;44.594;11.046;2023-07-20T17:28:13;100077.34;;;35.36;47.29
42125;BME280;27787;44.594;11.046;2023-07-20T17:30:59;100081.75;;;35.21;47.80
42125;BME280;27787;44.594;11.046;2023-07-20T17:33:43;100065.91;;;35.06;48.33
42125;BME280;27787;44.594;11.046;2023-07-20T17:36:28;100069.84;;;35.04;48.45
42125;BME280;27787;44.594;11.046;2023-07-20T17:39:13;100074.94;;;34.99;48.64
42125;BME280;27787;44.594;11.046;2023-07-20T17:41:57;100080.09;;;35.02;49.20
42125;BME280;27787;44.594;11.046;2023-07-20T17:44:41;100080.44;;;34.99;49.12
42125;BME280;27787;44.594;11.046;2023-07-20T17:47:26;100078.53;;;34.91;49.69
42125;BME280;27787;44.594;11.046;2023-07-20T17:50:10;100077.22;;;34.85;49.91
42125;BME280;27787;44.594;11.046;2023-07-20T17:52:54;100079.94;;;34.77;49.64
42125;BME280;27787;44.594;11.046;2023-07-20T17:55:40;100081.59;;;34.70;49.84
42125;BME280;27787;44.594;11.046;2023-07-20T17:58:24;100079.81;;;34.61;50.27
42125;BME280;27787;44.594;11.046;2023-07-20T18:01:08;100081.16;;;34.57;50.09
42125;BME280;27787;44.594;11.046;2023-07-20T18:03:53;100088.75;;;34.45;50.79
42125;BME280;27787;44.594;11.046;2023-07-20T18:06:37;100087.97;;;34.35;50.72
42125;BME280;27787;44.594;11.046;2023-07-20T18:09:21;100086.03;;;34.27;50.68
42125;BME280;27787;44.594;11.046;2023-07-20T18:12:06;100079.91;;;34.16;51.08
42125;BME280;27787;44.594;11.046;2023-07-20T18:14:50;100081.00;;;34.05;51.42
42125;BME280;27787;44.594;11.046;2023-07-20T18:17:37;100080.25;;;33.85;52.21
42125;BME280;27787;44.594;11.046;2023-07-20T18:20:21;100079.63;;;33.73;52.61
42125;BME280;27787;44.594;11.046;2023-07-20T18:23:05;100081.97;;;33.68;53.08
42125;BME280;27787;44.594;11.046;2023-07-20T18:25:49;100080.00;;;33.61;52.83
42125;BME280;27787;44.594;11.046;2023-07-20T18:28:34;100079.75;;;33.54;53.17
42125;BME280;27787;44.594;11.046;2023-07-20T18:31:18;100072.44;;;33.45;53.22
42125;BME280;27787;44.594;11.046;2023-07-20T18:34:02;100080.25;;;33.40;53.76
42125;BME280;27787;44.594;11.046;2023-07-20T18:36:46;100083.84;;;33.31;53.98
42125;BME280;27787;44.594;11.046;2023-07-20T18:39:31;100073.25;;;33.18;54.33
42125;BME280;27787;44.594;11.046;2023-07-20T18:42:14;100074.31;;;33.07;54.69
42125;BME280;27787;44.594;11.046;2023-07-20T18:44:59;100079.84;;;32.98;55.31
42125;BME280;27787;44.594;11.046;2023-07-20T18:47:44;100074.09;;;32.91;55.45
42125;BME280;27787;44.594;11.046;2023-07-20T18:50:28;100076.97;;;32.80;55.73
42125;BME280;27787;44.594;11.046;2023-07-20T18:53:13;100076.84;;;32.72;56.12